sensor_id;sensor_type;location;lat;lon;timestamp;temperature;humidity
17172;DHT22;8701;50.150;8.756;2023-03-01T00:02:57;1.60;99.90
17172;DHT22;8701;50.150;8.756;2023-03-01T00:06:59;1.60;99.90
17172;DHT22;8701;50.150;8.756;2023-03-01T00:11:04;1.70;99.90
17172;DHT22;8701;50.150;8.756;2023-03-01T00:15:07;1.60;99.90
17172;DHT22;8701;50.150;8.756;2023-03-01T00:19:13;1.60;99.90
17172;DHT22;8701;50.150;8.756;2023-03-01T00:23:15;1.50;99.90
17172;DHT22;8701;50.150;8.756;2023-03-01T00:27:17;1.50;99.90
17172;DHT22;8701;50.150;8.756;2023-03-01T00:31:21;1.50;99.90
17172;DHT22;8701;50.150;8.756;2023-03-01T00:35:25;1.50;99.90
17172;DHT22;8701;50.150;8.756;2023-03-01T00:39:27;1.50;99.90
17172;DHT22;8701;50.150;8.756;2023-03-01T00:43:30;1.50;99.90
17172;DHT22;8701;50.150;8.756;2023-03-01T00:47:37;1.50;99.90
17172;DHT22;8701;50.150;8.756;2023-03-01T00:51:40;1.40;99.90
17172;DHT22;8701;50.150;8.756;2023-03-01T00:55:43;1.40;99.90
17172;DHT22;8701;50.150;8.756;2023-03-01T00:59:45;1.40;99.90
17172;DHT22;8701;50.150;8.756;2023-03-01T01:03:49;1.40;99.90
17172;DHT22;8701;50.150;8.756;2023-03-01T01:07:53;1.40;99.90
17172;DHT22;8701;50.150;8.756;2023-03-01T01:11:55;1.50;99.90
17172;DHT22;8701;50.150;8.756;2023-03-01T01:16:00;1.40;99.90
17172;DHT22;8701;50.150;8.756;2023-03-01T01:20:03;1.50;99.90
17172;DHT22;8701;50.150;8.756;2023-03-01T01:24:07;1.50;99.90
17172;DHT22;8701;50.150;8.756;2023-03-01T01:28:10;1.40;99.90
17172;DHT22;8701;50.150;8.756;2023-03-01T01:32:12;1.50;99.90
17172;DHT22;8701;50.150;8.756;2023-03-01T01:36:14;1.50;99.90
17172;DHT22;8701;50.150;8.756;2023-03-01T01:40:18;1.40;99.90
17172;DHT22;8701;50.150;8.756;2023-03-01T01:44:23;1.30;99.90
17172;DHT22;8701;50.150;8.756;2023-03-01T01:48:30;1.30;99.90
17172;DHT22;8701;50.150;8.756;2023-03-01T01:52:41;1.30;99.90
17172;DHT22;8701;50.150;8.756;2023-03-01T01:56:48;1.30;99.90
17172;DHT22;8701;50.150;8.756;2023-03-01T02:00:54;1.40;99.90
17172;DHT22;8701;50.150;8.756;2023-03-01T02:05:03;1.40;99.90
17172;DHT22;8701;50.150;8.756;2023-03-01T02:09:13;1.40;99.90
17172;DHT22;8701;50.150;8.756;2023-03-01T02:13:19;1.30;99.90
17172;DHT22;8701;50.150;8.756;2023-03-01T02:17:21;1.30;99.90
17172;DHT22;8701;50.150;8.756;2023-03-01T02:21:36;1.20;99.90
17172;DHT22;8701;50.150;8.756;2023-03-01T02:25:47;1.20;99.90
17172;DHT22;8701;50.150;8.756;2023-03-01T02:29:53;1.20;99.90
17172;DHT22;8701;50.150;8.756;2023-03-01T02:33:56;1.20;99.90
17172;DHT22;8701;50.150;8.756;2023-03-01T02:37:59;1.00;99.90
17172;DHT22;8701;50.150;8.756;2023-03-01T02:42:04;1.10;99.90
17172;DHT22;8701;50.150;8.756;2023-03-01T02:46:12;1.10;99.90
17172;DHT22;8701;50.150;8.756;2023-03-01T02:50:42;1.00;99.90
17172;DHT22;8701;50.150;8.756;2023-03-01T02:54:50;1.00;99.90
17172;DHT22;8701;50.150;8.756;2023-03-01T02:58:56;1.00;99.90
17172;DHT22;8701;50.150;8.756;2023-03-01T03:03:04;1.10;99.90
17172;DHT22;8701;50.150;8.756;2023-03-01T03:07:07;1.10;99.90
17172;DHT22;8701;50.150;8.756;2023-03-01T03:11:09;1.00;99.90
17172;DHT22;8701;50.150;8.756;2023-03-01T03:15:11;0.90;99.90
17172;DHT22;8701;50.150;8.756;2023-03-01T03:19:15;0.90;99.90
17172;DHT22;8701;50.150;8.756;2023-03-01T03:23:18;1.00;99.90
17172;DHT22;8701;50.150;8.756;2023-03-01T03:27:21;0.90;99.90
17172;DHT22;8701;50.150;8.756;2023-03-01T03:31:23;1.00;99.90
17172;DHT22;8701;50.150;8.756;2023-03-01T03:35:29;0.90;99.90
17172;DHT22;8701;50.150;8.756;2023-03-01T03:39:31;0.90;99.90
17172;DHT22;8701;50.150;8.756;2023-03-01T03:43:37;0.80;99.90
17172;DHT22;8701;50.150;8.756;2023-03-01T03:47:39;0.80;99.90
17172;DHT22;8701;50.150;8.756;2023-03-01T03:51:45;0.90;99.90
17172;DHT22;8701;50.150;8.756;2023-03-01T03:55:48;0.80;99.90
17172;DHT22;8701;50.150;8.756;2023-03-01T03:59:52;0.80;99.90
17172;DHT22;8701;50.150;8.756;2023-03-01T04:03:54;0.80;99.90
17172;DHT22;8701;50.150;8.756;2023-03-01T04:07:58;0.70;99.90
17172;DHT22;8701;50.150;8.756;2023-03-01T04:12:03;0.70;99.90
17172;DHT22;8701;50.150;8.756;2023-03-01T04:16:06;0.70;99.90
17172;DHT22;8701;50.150;8.756;2023-03-01T04:20:10;0.70;99.90
17172;DHT22;8701;50.150;8.756;2023-03-01T04:24:14;0.60;99.90
17172;DHT22;8701;50.150;8.756;2023-03-01T04:28:17;0.60;99.90
17172;DHT22;8701;50.150;8.756;2023-03-01T04:32:19;0.50;99.90
17172;DHT22;8701;50.150;8.756;2023-03-01T04:36:24;0.50;99.90
17172;DHT22;8701;50.150;8.756;2023-03-01T04:40:29;0.50;99.90
17172;DHT22;8701;50.150;8.756;2023-03-01T04:44:32;0.50;99.90
17172;DHT22;8701;50.150;8.756;2023-03-01T04:48:34;0.50;99.90
17172;DHT22;8701;50.150;8.756;2023-03-01T04:52:37;0.50;99.90
17172;DHT22;8701;50.150;8.756;2023-03-01T04:56:40;0.40;99.90
17172;DHT22;8701;50.150;8.756;2023-03-01T05:00:43;0.50;99.90
17172;DHT22;8701;50.150;8.756;2023-03-01T05:04:45;0.60;99.90
17172;DHT22;8701;50.150;8.756;2023-03-01T05:08:47;0.60;99.90
17172;DHT22;8701;50.150;8.756;2023-03-01T05:12:51;0.60;99.90
17172;DHT22;8701;50.150;8.756;2023-03-01T05:16:54;0.70;99.90
17172;DHT22;8701;50.150;8.756;2023-03-01T05:21:02;0.70;99.90
17172;DHT22;8701;50.150;8.756;2023-03-01T05:25:05;0.60;99.90
17172;DHT22;8701;50.150;8.756;2023-03-01T05:29:10;0.60;99.90
17172;DHT22;8701;50.150;8.756;2023-03-01T05:33:12;0.60;99.90
17172;DHT22;8701;50.150;8.756;2023-03-01T05:37:15;0.60;99.90
17172;DHT22;8701;50.150;8.756;2023-03-01T05:41:17;0.60;99.90
17172;DHT22;8701;50.150;8.756;2023-03-01T05:45:22;0.50;99.90
17172;DHT22;8701;50.150;8.756;2023-03-01T05:49:24;0.50;99.90
17172;DHT22;8701;50.150;8.756;2023-03-01T05:53:27;0.50;99.90
17172;DHT22;8701;50.150;8.756;2023-03-01T05:57:29;0.50;99.90
17172;DHT22;8701;50.150;8.756;2023-03-01T06:01:33;0.50;99.90
17172;DHT22;8701;50.150;8.756;2023-03-01T06:05:35;0.40;99.90
17172;DHT22;8701;50.150;8.756;2023-03-01T06:09:38;0.40;99.90
17172;DHT22;8701;50.150;8.756;2023-03-01T06:13:41;0.40;99.90
17172;DHT22;8701;50.150;8.756;2023-03-01T06:17:45;0.40;99.90
17172;DHT22;8701;50.150;8.756;2023-03-01T06:21:48;0.50;99.90
17172;DHT22;8701;50.150;8.756;2023-03-01T06:25:50;0.40;99.90
17172;DHT22;8701;50.150;8.756;2023-03-01T06:29:52;0.50;99.90
17172;DHT22;8701;50.150;8.756;2023-03-01T06:33:56;0.50;99.90
17172;DHT22;8701;50.150;8.756;2023-03-01T06:37:59;0.50;99.90
17172;DHT22;8701;50.150;8.756;2023-03-01T06:42:01;0.50;99.90
17172;DHT22;8701;50.150;8.756;2023-03-01T06:46:04;0.60;99.90
17172;DHT22;8701;50.150;8.756;2023-03-01T06:50:10;0.60;99.90
17172;DHT22;8701;50.150;8.756;2023-03-01T06:54:12;0.70;99.90
17172;DHT22;8701;50.150;8.756;2023-03-01T06:58:15;0.70;99.90
17172;DHT22;8701;50.150;8.756;2023-03-01T07:02:17;0.80;99.90
17172;DHT22;8701;50.150;8.756;2023-03-01T07:06:22;0.80;99.90
17172;DHT22;8701;50.150;8.756;2023-03-01T07:10:24;0.80;99.90
17172;DHT22;8701;50.150;8.756;2023-03-01T07:14:26;0.80;99.90
17172;DHT22;8701;50.150;8.756;2023-03-01T07:18:29;0.80;99.90
17172;DHT22;8701;50.150;8.756;2023-03-01T07:22:33;0.80;99.90
17172;DHT22;8701;50.150;8.756;2023-03-01T07:26:36;0.80;99.90
17172;DHT22;8701;50.150;8.756;2023-03-01T07:30:38;0.80;99.90
17172;DHT22;8701;50.150;8.756;2023-03-01T07:34:41;0.70;99.90
17172;DHT22;8701;50.150;8.756;2023-03-01T07:38:45;0.70;99.90
17172;DHT22;8701;50.150;8.756;2023-03-01T07:42:47;0.80;99.90
17172;DHT22;8701;50.150;8.756;2023-03-01T07:46:49;1.10;99.90
17172;DHT22;8701;50.150;8.756;2023-03-01T07:50:53;1.10;99.90
17172;DHT22;8701;50.150;8.756;2023-03-01T07:54:57;1.20;99.90
17172;DHT22;8701;50.150;8.756;2023-03-01T07:58:59;1.40;99.90
17172;DHT22;8701;50.150;8.756;2023-03-01T08:03:02;1.70;99.90
17172;DHT22;8701;50.150;8.756;2023-03-01T08:07:05;2.40;99.90
17172;DHT22;8701;50.150;8.756;2023-03-01T08:11:11;3.50;99.90
17172;DHT22;8701;50.150;8.756;2023-03-01T08:15:13;4.60;99.90
17172;DHT22;8701;50.150;8.756;2023-03-01T08:19:16;5.50;99.90
17172;DHT22;8701;50.150;8.756;2023-03-01T08:23:18;6.30;99.90
17172;DHT22;8701;50.150;8.756;2023-03-01T08:27:21;7.10;99.90
17172;DHT22;8701;50.150;8.756;2023-03-01T08:31:27;7.70;99.90
17172;DHT22;8701;50.150;8.756;2023-03-01T08:35:29;8.50;99.90
17172;DHT22;8701;50.150;8.756;2023-03-01T08:39:32;9.30;99.90
17172;DHT22;8701;50.150;8.756;2023-03-01T08:43:35;10.20;99.90
17172;DHT22;8701;50.150;8.756;2023-03-01T08:47:37;11.10;99.00
17172;DHT22;8701;50.150;8.756;2023-03-01T08:51:40;11.70;96.60
17172;DHT22;8701;50.150;8.756;2023-03-01T08:55:42;12.50;95.00
17172;DHT22;8701;50.150;8.756;2023-03-01T08:59:46;13.00;92.30
17172;DHT22;8701;50.150;8.756;2023-03-01T09:03:48;13.60;91.60
17172;DHT22;8701;50.150;8.756;2023-03-01T09:07:51;13.80;89.70
17172;DHT22;8701;50.150;8.756;2023-03-01T09:11:53;14.20;89.10
17172;DHT22;8701;50.150;8.756;2023-03-01T09:15:56;14.50;87.40
17172;DHT22;8701;50.150;8.756;2023-03-01T09:19:58;14.40;86.00
17172;DHT22;8701;50.150;8.756;2023-03-01T09:24:01;14.10;84.60
17172;DHT22;8701;50.150;8.756;2023-03-01T09:28:03;13.30;83.90
17172;DHT22;8701;50.150;8.756;2023-03-01T09:32:07;12.10;86.00
17172;DHT22;8701;50.150;8.756;2023-03-01T09:36:15;11.60;88.50
17172;DHT22;8701;50.150;8.756;2023-03-01T09:40:20;11.10;89.70
17172;DHT22;8701;50.150;8.756;2023-03-01T09:44:34;10.80;89.20
17172;DHT22;8701;50.150;8.756;2023-03-01T09:48:43;10.60;90.50
17172;DHT22;8701;50.150;8.756;2023-03-01T09:52:50;10.50;90.50
17172;DHT22;8701;50.150;8.756;2023-03-01T09:57:13;10.30;91.90
17172;DHT22;8701;50.150;8.756;2023-03-01T10:01:29;10.10;91.80
17172;DHT22;8701;50.150;8.756;2023-03-01T10:05:43;10.00;92.00
17172;DHT22;8701;50.150;8.756;2023-03-01T10:09:47;10.10;92.50
17172;DHT22;8701;50.150;8.756;2023-03-01T10:13:55;10.00;91.40
17172;DHT22;8701;50.150;8.756;2023-03-01T10:18:03;9.90;93.20
17172;DHT22;8701;50.150;8.756;2023-03-01T10:22:13;9.70;92.90
17172;DHT22;8701;50.150;8.756;2023-03-01T10:26:37;9.60;93.30
17172;DHT22;8701;50.150;8.756;2023-03-01T10:30:42;9.70;94.10
17172;DHT22;8701;50.150;8.756;2023-03-01T10:34:44;9.70;93.90
17172;DHT22;8701;50.150;8.756;2023-03-01T10:38:50;9.80;93.90
17172;DHT22;8701;50.150;8.756;2023-03-01T10:42:57;10.10;93.60
17172;DHT22;8701;50.150;8.756;2023-03-01T10:47:00;10.20;93.60
17172;DHT22;8701;50.150;8.756;2023-03-01T10:51:07;10.50;94.30
17172;DHT22;8701;50.150;8.756;2023-03-01T10:55:29;10.50;92.50
17172;DHT22;8701;50.150;8.756;2023-03-01T10:59:35;10.50;91.80
17172;DHT22;8701;50.150;8.756;2023-03-01T11:03:38;10.80;92.10
17172;DHT22;8701;50.150;8.756;2023-03-01T11:07:47;11.10;91.40
17172;DHT22;8701;50.150;8.756;2023-03-01T11:11:54;11.40;90.80
17172;DHT22;8701;50.150;8.756;2023-03-01T11:16:00;11.70;90.50
17172;DHT22;8701;50.150;8.756;2023-03-01T11:20:23;11.80;88.30
17172;DHT22;8701;50.150;8.756;2023-03-01T11:24:33;12.10;90.10
17172;DHT22;8701;50.150;8.756;2023-03-01T11:28:39;12.50;85.50
17172;DHT22;8701;50.150;8.756;2023-03-01T11:32:45;13.00;86.60
17172;DHT22;8701;50.150;8.756;2023-03-01T11:36:52;13.80;85.10
17172;DHT22;8701;50.150;8.756;2023-03-01T11:41:01;14.70;81.10
17172;DHT22;8701;50.150;8.756;2023-03-01T11:45:11;15.70;76.60
17172;DHT22;8701;50.150;8.756;2023-03-01T11:49:34;16.30;74.10
17172;DHT22;8701;50.150;8.756;2023-03-01T11:53:52;16.80;75.10
17172;DHT22;8701;50.150;8.756;2023-03-01T11:58:26;17.20;70.50
17172;DHT22;8701;50.150;8.756;2023-03-01T12:03:06;17.60;69.00
17172;DHT22;8701;50.150;8.756;2023-03-01T12:07:18;17.80;69.50
17172;DHT22;8701;50.150;8.756;2023-03-01T12:11:28;18.10;68.90
17172;DHT22;8701;50.150;8.756;2023-03-01T12:15:42;18.50;66.00
17172;DHT22;8701;50.150;8.756;2023-03-01T12:20:16;18.90;65.80
17172;DHT22;8701;50.150;8.756;2023-03-01T12:24:43;19.50;61.00
17172;DHT22;8701;50.150;8.756;2023-03-01T12:29:06;19.90;59.70
17172;DHT22;8701;50.150;8.756;2023-03-01T12:33:22;20.40;59.80
17172;DHT22;8701;50.150;8.756;2023-03-01T12:37:36;20.60;58.90
17172;DHT22;8701;50.150;8.756;2023-03-01T12:41:47;20.80;58.10
17172;DHT22;8701;50.150;8.756;2023-03-01T12:46:01;21.10;58.50
17172;DHT22;8701;50.150;8.756;2023-03-01T12:50:12;21.60;56.80
17172;DHT22;8701;50.150;8.756;2023-03-01T12:54:22;21.90;55.10
17172;DHT22;8701;50.150;8.756;2023-03-01T12:58:31;21.90;55.00
17172;DHT22;8701;50.150;8.756;2023-03-01T13:02:37;22.20;55.60
17172;DHT22;8701;50.150;8.756;2023-03-01T13:06:47;22.30;54.80
17172;DHT22;8701;50.150;8.756;2023-03-01T13:10:57;22.30;52.20
17172;DHT22;8701;50.150;8.756;2023-03-01T13:15:00;22.60;53.40
17172;DHT22;8701;50.150;8.756;2023-03-01T13:19:07;22.30;53.50
17172;DHT22;8701;50.150;8.756;2023-03-01T13:23:25;22.80;53.20
17172;DHT22;8701;50.150;8.756;2023-03-01T13:27:32;22.70;54.10
17172;DHT22;8701;50.150;8.756;2023-03-01T13:31:56;22.40;54.90
17172;DHT22;8701;50.150;8.756;2023-03-01T13:35:58;22.20;54.30
17172;DHT22;8701;50.150;8.756;2023-03-01T13:40:05;22.20;52.00
17172;DHT22;8701;50.150;8.756;2023-03-01T13:44:21;21.90;54.20
17172;DHT22;8701;50.150;8.756;2023-03-01T13:48:29;22.00;53.50
17172;DHT22;8701;50.150;8.756;2023-03-01T13:52:37;22.10;52.50
17172;DHT22;8701;50.150;8.756;2023-03-01T13:56:40;21.90;54.00
17172;DHT22;8701;50.150;8.756;2023-03-01T14:00:45;22.00;54.00
17172;DHT22;8701;50.150;8.756;2023-03-01T14:04:56;22.00;53.50
17172;DHT22;8701;50.150;8.756;2023-03-01T14:09:04;22.00;53.00
17172;DHT22;8701;50.150;8.756;2023-03-01T14:13:22;22.00;52.70
17172;DHT22;8701;50.150;8.756;2023-03-01T14:17:56;22.10;52.90
17172;DHT22;8701;50.150;8.756;2023-03-01T14:22:10;21.70;53.70
17172;DHT22;8701;50.150;8.756;2023-03-01T14:26:20;21.70;53.50
17172;DHT22;8701;50.150;8.756;2023-03-01T14:30:24;21.50;52.50
17172;DHT22;8701;50.150;8.756;2023-03-01T14:34:28;21.30;53.40
17172;DHT22;8701;50.150;8.756;2023-03-01T14:38:33;20.90;54.00
17172;DHT22;8701;50.150;8.756;2023-03-01T14:42:36;20.80;53.70
17172;DHT22;8701;50.150;8.756;2023-03-01T14:46:41;20.40;54.30
17172;DHT22;8701;50.150;8.756;2023-03-01T14:50:46;20.00;54.80
17172;DHT22;8701;50.150;8.756;2023-03-01T14:54:53;19.60;54.30
17172;DHT22;8701;50.150;8.756;2023-03-01T14:58:58;19.70;55.20
17172;DHT22;8701;50.150;8.756;2023-03-01T15:03:06;19.40;55.90
17172;DHT22;8701;50.150;8.756;2023-03-01T15:07:15;19.20;54.80
17172;DHT22;8701;50.150;8.756;2023-03-01T15:11:20;18.70;55.40
17172;DHT22;8701;50.150;8.756;2023-03-01T15:15:33;18.30;56.30
17172;DHT22;8701;50.150;8.756;2023-03-01T15:19:35;17.80;54.90
17172;DHT22;8701;50.150;8.756;2023-03-01T15:23:39;17.40;56.70
17172;DHT22;8701;50.150;8.756;2023-03-01T15:27:45;17.00;55.90
17172;DHT22;8701;50.150;8.756;2023-03-01T15:31:55;16.60;58.00
17172;DHT22;8701;50.150;8.756;2023-03-01T15:35:58;16.30;58.20
17172;DHT22;8701;50.150;8.756;2023-03-01T15:40:16;15.80;57.10
17172;DHT22;8701;50.150;8.756;2023-03-01T15:44:26;15.50;57.60
17172;DHT22;8701;50.150;8.756;2023-03-01T15:48:29;15.00;57.50
17172;DHT22;8701;50.150;8.756;2023-03-01T15:52:34;14.70;59.20
17172;DHT22;8701;50.150;8.756;2023-03-01T15:56:41;14.10;58.30
17172;DHT22;8701;50.150;8.756;2023-03-01T16:00:46;13.70;59.70
17172;DHT22;8701;50.150;8.756;2023-03-01T16:04:49;13.40;61.00
17172;DHT22;8701;50.150;8.756;2023-03-01T16:08:51;13.10;61.70
17172;DHT22;8701;50.150;8.756;2023-03-01T16:12:55;12.90;61.70
17172;DHT22;8701;50.150;8.756;2023-03-01T16:16:57;12.80;62.90
17172;DHT22;8701;50.150;8.756;2023-03-01T16:20:59;12.60;63.40
17172;DHT22;8701;50.150;8.756;2023-03-01T16:25:02;12.40;63.60
17172;DHT22;8701;50.150;8.756;2023-03-01T16:29:06;12.20;63.60
17172;DHT22;8701;50.150;8.756;2023-03-01T16:33:08;12.00;63.50
17172;DHT22;8701;50.150;8.756;2023-03-01T16:37:10;11.80;64.00
17172;DHT22;8701;50.150;8.756;2023-03-01T16:41:14;11.60;62.80
17172;DHT22;8701;50.150;8.756;2023-03-01T16:45:18;11.40;64.60
17172;DHT22;8701;50.150;8.756;2023-03-01T16:49:21;11.20;64.40
17172;DHT22;8701;50.150;8.756;2023-03-01T16:53:23;10.90;63.90
17172;DHT22;8701;50.150;8.756;2023-03-01T16:57:25;10.40;64.70
17172;DHT22;8701;50.150;8.756;2023-03-01T17:01:29;10.40;66.50
17172;DHT22;8701;50.150;8.756;2023-03-01T17:05:40;10.40;66.70
17172;DHT22;8701;50.150;8.756;2023-03-01T17:09:42;10.30;67.70
17172;DHT22;8701;50.150;8.756;2023-03-01T17:13:44;10.20;67.00
17172;DHT22;8701;50.150;8.756;2023-03-01T17:17:48;10.00;68.20
17172;DHT22;8701;50.150;8.756;2023-03-01T17:21:51;10.00;68.90
17172;DHT22;8701;50.150;8.756;2023-03-01T17:25:54;9.90;69.60
17172;DHT22;8701;50.150;8.756;2023-03-01T17:29:56;9.80;68.00
17172;DHT22;8701;50.150;8.756;2023-03-01T17:34:00;9.70;71.30
17172;DHT22;8701;50.150;8.756;2023-03-01T17:38:02;9.50;69.30
17172;DHT22;8701;50.150;8.756;2023-03-01T17:42:05;9.50;70.00
17172;DHT22;8701;50.150;8.756;2023-03-01T17:46:07;9.40;71.20
17172;DHT22;8701;50.150;8.756;2023-03-01T17:50:11;9.30;74.40
17172;DHT22;8701;50.150;8.756;2023-03-01T17:54:13;9.20;70.50
17172;DHT22;8701;50.150;8.756;2023-03-01T17:58:15;9.20;70.60
17172;DHT22;8701;50.150;8.756;2023-03-01T18:02:22;9.10;71.40
17172;DHT22;8701;50.150;8.756;2023-03-01T18:06:28;9.00;70.50
17172;DHT22;8701;50.150;8.756;2023-03-01T18:10:31;8.80;70.60
17172;DHT22;8701;50.150;8.756;2023-03-01T18:14:34;8.60;70.50
17172;DHT22;8701;50.150;8.756;2023-03-01T18:18:36;8.50;71.40
17172;DHT22;8701;50.150;8.756;2023-03-01T18:22:40;8.40;72.10
17172;DHT22;8701;50.150;8.756;2023-03-01T18:26:42;8.30;72.60
17172;DHT22;8701;50.150;8.756;2023-03-01T18:30:44;8.10;72.20
17172;DHT22;8701;50.150;8.756;2023-03-01T18:34:47;8.10;72.60
17172;DHT22;8701;50.150;8.756;2023-03-01T18:38:51;7.90;73.10
17172;DHT22;8701;50.150;8.756;2023-03-01T18:42:56;7.80;73.50
17172;DHT22;8701;50.150;8.756;2023-03-01T18:46:58;7.60;75.30
17172;DHT22;8701;50.150;8.756;2023-03-01T18:51:07;7.60;74.70
17172;DHT22;8701;50.150;8.756;2023-03-01T18:55:11;7.50;73.90
17172;DHT22;8701;50.150;8.756;2023-03-01T18:59:13;7.30;75.00
17172;DHT22;8701;50.150;8.756;2023-03-01T19:03:15;7.20;74.30
17172;DHT22;8701;50.150;8.756;2023-03-01T19:07:18;7.20;75.00
17172;DHT22;8701;50.150;8.756;2023-03-01T19:11:22;6.90;75.50
17172;DHT22;8701;50.150;8.756;2023-03-01T19:15:27;6.80;76.00
17172;DHT22;8701;50.150;8.756;2023-03-01T19:19:29;6.60;76.50
17172;DHT22;8701;50.150;8.756;2023-03-01T19:23:32;6.50;76.70
17172;DHT22;8701;50.150;8.756;2023-03-01T19:27:36;6.40;77.50
17172;DHT22;8701;50.150;8.756;2023-03-01T19:31:39;6.40;77.70
17172;DHT22;8701;50.150;8.756;2023-03-01T19:35:41;6.30;78.00
17172;DHT22;8701;50.150;8.756;2023-03-01T19:39:43;6.00;79.20
17172;DHT22;8701;50.150;8.756;2023-03-01T19:43:48;5.80;80.10
17172;DHT22;8701;50.150;8.756;2023-03-01T19:47:50;5.60;81.40
17172;DHT22;8701;50.150;8.756;2023-03-01T19:51:53;5.70;82.60
17172;DHT22;8701;50.150;8.756;2023-03-01T19:55:58;5.60;83.20
17172;DHT22;8701;50.150;8.756;2023-03-01T20:00:02;5.60;84.40
17172;DHT22;8701;50.150;8.756;2023-03-01T20:04:13;5.60;84.40
17172;DHT22;8701;50.150;8.756;2023-03-01T20:08:15;5.40;85.60
17172;DHT22;8701;50.150;8.756;2023-03-01T20:12:17;5.40;87.10
17172;DHT22;8701;50.150;8.756;2023-03-01T20:16:21;5.40;87.50
17172;DHT22;8701;50.150;8.756;2023-03-01T20:20:24;5.40;88.80
17172;DHT22;8701;50.150;8.756;2023-03-01T20:24:26;5.40;88.60
17172;DHT22;8701;50.150;8.756;2023-03-01T20:28:28;5.30;90.00
17172;DHT22;8701;50.150;8.756;2023-03-01T20:32:33;5.20;90.30
17172;DHT22;8701;50.150;8.756;2023-03-01T20:36:35;5.10;90.50
17172;DHT22;8701;50.150;8.756;2023-03-01T20:40:39;5.00;90.90
17172;DHT22;8701;50.150;8.756;2023-03-01T20:44:41;4.90;91.40
17172;DHT22;8701;50.150;8.756;2023-03-01T20:48:45;4.90;91.90
17172;DHT22;8701;50.150;8.756;2023-03-01T20:52:49;4.90;92.30
17172;DHT22;8701;50.150;8.756;2023-03-01T20:56:51;4.80;92.70
17172;DHT22;8701;50.150;8.756;2023-03-01T21:00:53;4.80;92.70
17172;DHT22;8701;50.150;8.756;2023-03-01T21:04:57;4.80;92.90
17172;DHT22;8701;50.150;8.756;2023-03-01T21:08:59;4.70;93.30
17172;DHT22;8701;50.150;8.756;2023-03-01T21:13:01;4.80;93.80
17172;DHT22;8701;50.150;8.756;2023-03-01T21:17:03;4.80;93.60
17172;DHT22;8701;50.150;8.756;2023-03-01T21:21:08;4.80;93.90
17172;DHT22;8701;50.150;8.756;2023-03-01T21:25:11;4.60;94.60
17172;DHT22;8701;50.150;8.756;2023-03-01T21:29:13;4.60;94.80
17172;DHT22;8701;50.150;8.756;2023-03-01T21:33:16;4.50;94.80
17172;DHT22;8701;50.150;8.756;2023-03-01T21:37:19;4.50;95.40
17172;DHT22;8701;50.150;8.756;2023-03-01T21:41:29;4.40;95.60
17172;DHT22;8701;50.150;8.756;2023-03-01T21:45:33;4.20;96.10
17172;DHT22;8701;50.150;8.756;2023-03-01T21:49:36;4.30;96.50
17172;DHT22;8701;50.150;8.756;2023-03-01T21:53:40;4.20;96.60
17172;DHT22;8701;50.150;8.756;2023-03-01T21:57:43;4.20;96.60
17172;DHT22;8701;50.150;8.756;2023-03-01T22:01:45;4.20;96.90
17172;DHT22;8701;50.150;8.756;2023-03-01T22:05:53;4.30;97.50
17172;DHT22;8701;50.150;8.756;2023-03-01T22:09:57;4.20;97.30
17172;DHT22;8701;50.150;8.756;2023-03-01T22:14:00;4.20;97.60
17172;DHT22;8701;50.150;8.756;2023-03-01T22:18:04;4.20;97.60
17172;DHT22;8701;50.150;8.756;2023-03-01T22:22:06;4.10;97.60
17172;DHT22;8701;50.150;8.756;2023-03-01T22:26:22;4.10;98.10
17172;DHT22;8701;50.150;8.756;2023-03-01T22:30:25;4.10;98.00
17172;DHT22;8701;50.150;8.756;2023-03-01T22:34:27;4.00;98.00
17172;DHT22;8701;50.150;8.756;2023-03-01T22:38:30;3.80;99.00
17172;DHT22;8701;50.150;8.756;2023-03-01T22:42:34;3.70;99.50
17172;DHT22;8701;50.150;8.756;2023-03-01T22:46:36;3.70;99.90
17172;DHT22;8701;50.150;8.756;2023-03-01T22:50:41;3.70;99.90
17172;DHT22;8701;50.150;8.756;2023-03-01T22:54:43;3.60;99.90
17172;DHT22;8701;50.150;8.756;2023-03-01T22:58:47;3.50;99.90
17172;DHT22;8701;50.150;8.756;2023-03-01T23:02:49;3.50;99.90
17172;DHT22;8701;50.150;8.756;2023-03-01T23:06:51;3.50;99.90
17172;DHT22;8701;50.150;8.756;2023-03-01T23:10:54;3.50;99.90
17172;DHT22;8701;50.150;8.756;2023-03-01T23:14:58;3.50;99.90
17172;DHT22;8701;50.150;8.756;2023-03-01T23:19:00;3.50;99.90
17172;DHT22;8701;50.150;8.756;2023-03-01T23:23:04;3.40;99.90
17172;DHT22;8701;50.150;8.756;2023-03-01T23:27:06;3.40;99.90
17172;DHT22;8701;50.150;8.756;2023-03-01T23:31:12;3.40;99.90
17172;DHT22;8701;50.150;8.756;2023-03-01T23:35:15;3.30;99.90
17172;DHT22;8701;50.150;8.756;2023-03-01T23:39:17;3.20;99.90
17172;DHT22;8701;50.150;8.756;2023-03-01T23:43:19;3.20;99.90
17172;DHT22;8701;50.150;8.756;2023-03-01T23:47:23;3.10;99.90
17172;DHT22;8701;50.150;8.756;2023-03-01T23:51:25;3.00;99.90
17172;DHT22;8701;50.150;8.756;2023-03-01T23:55:28;3.00;99.90
17172;DHT22;8701;50.150;8.756;2023-03-01T23:59:31;3.00;99.90
